sensor_id;sensor_type;location;lat;lon;timestamp;temperature;humidity
45409;DHT22;31162;51.076;3.784;2022-11-30T00:02:21;7.60;99.90
45409;DHT22;31162;51.076;3.784;2022-11-30T00:04:47;7.60;99.90
45409;DHT22;31162;51.076;3.784;2022-11-30T00:07:13;7.60;99.90
45409;DHT22;31162;51.076;3.784;2022-11-30T00:09:38;7.30;99.90
45409;DHT22;31162;51.076;3.784;2022-11-30T00:12:04;7.40;99.90
45409;DHT22;31162;51.076;3.784;2022-11-30T00:14:30;7.40;99.90
45409;DHT22;31162;51.076;3.784;2022-11-30T00:16:55;7.40;99.90
45409;DHT22;31162;51.076;3.784;2022-11-30T00:19:21;7.50;99.90
45409;DHT22;31162;51.076;3.784;2022-11-30T00:21:47;7.60;99.90
45409;DHT22;31162;51.076;3.784;2022-11-30T00:24:13;7.60;99.90
45409;DHT22;31162;51.076;3.784;2022-11-30T00:26:39;7.60;99.90
45409;DHT22;31162;51.076;3.784;2022-11-30T00:29:04;7.50;99.90
45409;DHT22;31162;51.076;3.784;2022-11-30T00:31:30;7.50;99.90
45409;DHT22;31162;51.076;3.784;2022-11-30T00:33:56;7.50;99.90
45409;DHT22;31162;51.076;3.784;2022-11-30T00:36:21;7.50;99.90
45409;DHT22;31162;51.076;3.784;2022-11-30T00:38:48;7.60;99.90
45409;DHT22;31162;51.076;3.784;2022-11-30T00:41:15;7.70;99.90
45409;DHT22;31162;51.076;3.784;2022-11-30T00:43:41;7.70;99.90
45409;DHT22;31162;51.076;3.784;2022-11-30T00:46:06;7.50;99.90
45409;DHT22;31162;51.076;3.784;2022-11-30T00:48:39;7.50;99.90
45409;DHT22;31162;51.076;3.784;2022-11-30T00:51:05;7.60;99.90
45409;DHT22;31162;51.076;3.784;2022-11-30T00:53:31;7.60;99.90
45409;DHT22;31162;51.076;3.784;2022-11-30T00:55:57;7.50;99.90
45409;DHT22;31162;51.076;3.784;2022-11-30T00:58:22;7.50;99.90
45409;DHT22;31162;51.076;3.784;2022-11-30T01:00:48;7.60;99.90
45409;DHT22;31162;51.076;3.784;2022-11-30T01:03:14;7.60;99.90
45409;DHT22;31162;51.076;3.784;2022-11-30T01:05:41;7.60;99.90
45409;DHT22;31162;51.076;3.784;2022-11-30T01:08:08;7.50;99.90
45409;DHT22;31162;51.076;3.784;2022-11-30T01:10:36;7.60;99.90
45409;DHT22;31162;51.076;3.784;2022-11-30T01:13:02;7.70;99.90
45409;DHT22;31162;51.076;3.784;2022-11-30T01:15:28;7.60;99.90
45409;DHT22;31162;51.076;3.784;2022-11-30T01:17:54;7.60;99.90
45409;DHT22;31162;51.076;3.784;2022-11-30T01:20:20;7.60;99.90
45409;DHT22;31162;51.076;3.784;2022-11-30T01:22:46;7.60;99.90
45409;DHT22;31162;51.076;3.784;2022-11-30T01:25:12;7.60;99.90
45409;DHT22;31162;51.076;3.784;2022-11-30T01:27:38;7.50;99.90
45409;DHT22;31162;51.076;3.784;2022-11-30T01:30:04;7.60;99.90
45409;DHT22;31162;51.076;3.784;2022-11-30T01:32:30;7.70;99.90
45409;DHT22;31162;51.076;3.784;2022-11-30T01:34:55;7.70;99.90
45409;DHT22;31162;51.076;3.784;2022-11-30T01:37:21;7.80;99.90
45409;DHT22;31162;51.076;3.784;2022-11-30T01:39:47;7.90;99.90
45409;DHT22;31162;51.076;3.784;2022-11-30T01:42:18;7.60;99.90
45409;DHT22;31162;51.076;3.784;2022-11-30T01:47:15;7.50;99.90
45409;DHT22;31162;51.076;3.784;2022-11-30T01:49:43;7.50;99.90
45409;DHT22;31162;51.076;3.784;2022-11-30T01:52:24;7.50;99.90
45409;DHT22;31162;51.076;3.784;2022-11-30T01:57:30;7.60;99.90
45409;DHT22;31162;51.076;3.784;2022-11-30T01:59:59;7.70;99.90
45409;DHT22;31162;51.076;3.784;2022-11-30T02:05:09;7.60;99.90
45409;DHT22;31162;51.076;3.784;2022-11-30T02:07:36;7.70;99.90
45409;DHT22;31162;51.076;3.784;2022-11-30T02:10:01;7.70;99.90
45409;DHT22;31162;51.076;3.784;2022-11-30T02:12:38;7.70;99.90
45409;DHT22;31162;51.076;3.784;2022-11-30T02:15:11;7.70;99.90
45409;DHT22;31162;51.076;3.784;2022-11-30T02:17:52;7.70;99.90
45409;DHT22;31162;51.076;3.784;2022-11-30T02:26:03;7.60;99.90
45409;DHT22;31162;51.076;3.784;2022-11-30T02:31:28;7.60;99.90
45409;DHT22;31162;51.076;3.784;2022-11-30T02:33:55;7.60;99.90
45409;DHT22;31162;51.076;3.784;2022-11-30T02:36:23;7.70;99.90
45409;DHT22;31162;51.076;3.784;2022-11-30T02:38:49;7.70;99.90
45409;DHT22;31162;51.076;3.784;2022-11-30T02:41:14;7.80;99.90
45409;DHT22;31162;51.076;3.784;2022-11-30T02:43:40;7.70;99.90
45409;DHT22;31162;51.076;3.784;2022-11-30T02:46:29;7.70;99.90
45409;DHT22;31162;51.076;3.784;2022-11-30T02:49:14;7.70;99.90
45409;DHT22;31162;51.076;3.784;2022-11-30T02:51:43;7.70;99.90
45409;DHT22;31162;51.076;3.784;2022-11-30T02:54:09;7.70;99.90
45409;DHT22;31162;51.076;3.784;2022-11-30T02:56:35;7.80;99.90
45409;DHT22;31162;51.076;3.784;2022-11-30T02:59:00;7.80;99.90
45409;DHT22;31162;51.076;3.784;2022-11-30T03:01:26;7.70;99.90
45409;DHT22;31162;51.076;3.784;2022-11-30T03:03:52;7.70;99.90
45409;DHT22;31162;51.076;3.784;2022-11-30T03:06:18;7.70;99.90
45409;DHT22;31162;51.076;3.784;2022-11-30T03:08:43;7.80;99.90
45409;DHT22;31162;51.076;3.784;2022-11-30T03:11:09;7.70;99.90
45409;DHT22;31162;51.076;3.784;2022-11-30T03:13:34;7.60;99.90
45409;DHT22;31162;51.076;3.784;2022-11-30T03:16:08;7.60;99.90
45409;DHT22;31162;51.076;3.784;2022-11-30T03:18:34;7.60;99.90
45409;DHT22;31162;51.076;3.784;2022-11-30T03:20:59;7.60;99.90
45409;DHT22;31162;51.076;3.784;2022-11-30T03:23:25;7.60;99.90
45409;DHT22;31162;51.076;3.784;2022-11-30T03:25:55;7.60;99.90
45409;DHT22;31162;51.076;3.784;2022-11-30T03:28:21;7.60;99.90
45409;DHT22;31162;51.076;3.784;2022-11-30T03:30:48;7.80;99.90
45409;DHT22;31162;51.076;3.784;2022-11-30T03:33:14;7.70;99.90
45409;DHT22;31162;51.076;3.784;2022-11-30T03:35:39;7.60;99.90
45409;DHT22;31162;51.076;3.784;2022-11-30T03:38:05;7.60;99.90
45409;DHT22;31162;51.076;3.784;2022-11-30T03:40:30;7.60;99.90
45409;DHT22;31162;51.076;3.784;2022-11-30T03:42:56;7.60;99.90
45409;DHT22;31162;51.076;3.784;2022-11-30T03:45:22;7.70;99.90
45409;DHT22;31162;51.076;3.784;2022-11-30T03:47:47;7.70;99.90
45409;DHT22;31162;51.076;3.784;2022-11-30T03:50:13;7.70;99.90
45409;DHT22;31162;51.076;3.784;2022-11-30T03:52:38;7.70;99.90
45409;DHT22;31162;51.076;3.784;2022-11-30T03:55:04;7.70;99.90
45409;DHT22;31162;51.076;3.784;2022-11-30T03:57:30;7.80;99.90
45409;DHT22;31162;51.076;3.784;2022-11-30T03:59:56;7.90;99.90
45409;DHT22;31162;51.076;3.784;2022-11-30T04:02:21;7.70;99.90
45409;DHT22;31162;51.076;3.784;2022-11-30T04:04:47;7.70;99.90
45409;DHT22;31162;51.076;3.784;2022-11-30T04:07:12;7.80;99.90
45409;DHT22;31162;51.076;3.784;2022-11-30T04:09:38;7.80;99.90
45409;DHT22;31162;51.076;3.784;2022-11-30T04:12:04;7.70;99.90
45409;DHT22;31162;51.076;3.784;2022-11-30T04:14:29;7.70;99.90
45409;DHT22;31162;51.076;3.784;2022-11-30T04:16:55;7.70;99.90
45409;DHT22;31162;51.076;3.784;2022-11-30T04:19:20;7.70;99.90
45409;DHT22;31162;51.076;3.784;2022-11-30T04:21:46;7.60;99.90
45409;DHT22;31162;51.076;3.784;2022-11-30T04:24:12;7.50;99.90
45409;DHT22;31162;51.076;3.784;2022-11-30T04:26:37;7.50;99.90
45409;DHT22;31162;51.076;3.784;2022-11-30T04:29:03;7.40;99.90
45409;DHT22;31162;51.076;3.784;2022-11-30T04:31:29;7.30;99.90
45409;DHT22;31162;51.076;3.784;2022-11-30T04:33:55;7.20;99.90
45409;DHT22;31162;51.076;3.784;2022-11-30T04:36:20;7.10;99.90
45409;DHT22;31162;51.076;3.784;2022-11-30T04:38:46;7.00;99.90
45409;DHT22;31162;51.076;3.784;2022-11-30T04:41:12;7.10;99.90
45409;DHT22;31162;51.076;3.784;2022-11-30T04:43:38;7.10;99.90
45409;DHT22;31162;51.076;3.784;2022-11-30T04:46:04;7.30;99.90
45409;DHT22;31162;51.076;3.784;2022-11-30T04:48:30;7.30;99.90
45409;DHT22;31162;51.076;3.784;2022-11-30T04:51:14;7.20;99.90
45409;DHT22;31162;51.076;3.784;2022-11-30T04:53:39;7.30;99.90
45409;DHT22;31162;51.076;3.784;2022-11-30T04:56:07;7.40;99.90
45409;DHT22;31162;51.076;3.784;2022-11-30T04:58:33;7.30;99.90
45409;DHT22;31162;51.076;3.784;2022-11-30T05:00:58;7.20;99.90
45409;DHT22;31162;51.076;3.784;2022-11-30T05:03:24;7.30;99.90
45409;DHT22;31162;51.076;3.784;2022-11-30T05:05:50;7.30;99.90
45409;DHT22;31162;51.076;3.784;2022-11-30T05:08:15;7.30;99.90
45409;DHT22;31162;51.076;3.784;2022-11-30T05:10:41;7.40;99.90
45409;DHT22;31162;51.076;3.784;2022-11-30T05:13:07;7.20;99.90
45409;DHT22;31162;51.076;3.784;2022-11-30T05:15:32;7.20;99.90
45409;DHT22;31162;51.076;3.784;2022-11-30T05:17:59;7.20;99.90
45409;DHT22;31162;51.076;3.784;2022-11-30T05:20:26;7.10;99.90
45409;DHT22;31162;51.076;3.784;2022-11-30T05:22:52;7.20;99.90
45409;DHT22;31162;51.076;3.784;2022-11-30T05:25:18;7.20;99.90
45409;DHT22;31162;51.076;3.784;2022-11-30T05:27:43;7.20;99.90
45409;DHT22;31162;51.076;3.784;2022-11-30T05:30:10;7.40;99.90
45409;DHT22;31162;51.076;3.784;2022-11-30T05:32:36;7.50;99.90
45409;DHT22;31162;51.076;3.784;2022-11-30T05:35:01;7.40;99.90
45409;DHT22;31162;51.076;3.784;2022-11-30T05:37:27;7.30;99.90
45409;DHT22;31162;51.076;3.784;2022-11-30T05:39:53;7.40;99.90
45409;DHT22;31162;51.076;3.784;2022-11-30T05:42:18;7.40;99.90
45409;DHT22;31162;51.076;3.784;2022-11-30T05:44:44;7.40;99.90
45409;DHT22;31162;51.076;3.784;2022-11-30T05:47:10;7.40;99.90
45409;DHT22;31162;51.076;3.784;2022-11-30T05:49:35;7.40;99.90
45409;DHT22;31162;51.076;3.784;2022-11-30T05:52:01;7.40;99.90
45409;DHT22;31162;51.076;3.784;2022-11-30T05:54:26;7.50;99.90
45409;DHT22;31162;51.076;3.784;2022-11-30T05:56:52;7.50;99.90
45409;DHT22;31162;51.076;3.784;2022-11-30T05:59:18;7.50;99.90
45409;DHT22;31162;51.076;3.784;2022-11-30T06:01:43;7.50;99.90
45409;DHT22;31162;51.076;3.784;2022-11-30T06:04:09;7.50;99.90
45409;DHT22;31162;51.076;3.784;2022-11-30T06:06:34;7.60;99.90
45409;DHT22;31162;51.076;3.784;2022-11-30T06:09:00;7.60;99.90
45409;DHT22;31162;51.076;3.784;2022-11-30T06:11:25;7.60;99.90
45409;DHT22;31162;51.076;3.784;2022-11-30T06:13:51;7.60;99.90
45409;DHT22;31162;51.076;3.784;2022-11-30T06:16:17;7.70;99.90
45409;DHT22;31162;51.076;3.784;2022-11-30T06:18:42;7.70;99.90
45409;DHT22;31162;51.076;3.784;2022-11-30T06:21:09;7.70;99.90
45409;DHT22;31162;51.076;3.784;2022-11-30T06:23:36;7.70;99.90
45409;DHT22;31162;51.076;3.784;2022-11-30T06:26:06;7.60;99.90
45409;DHT22;31162;51.076;3.784;2022-11-30T06:28:33;7.60;99.90
45409;DHT22;31162;51.076;3.784;2022-11-30T06:31:00;7.60;99.90
45409;DHT22;31162;51.076;3.784;2022-11-30T06:33:26;7.60;99.90
45409;DHT22;31162;51.076;3.784;2022-11-30T06:35:52;7.60;99.90
45409;DHT22;31162;51.076;3.784;2022-11-30T06:38:18;7.60;99.90
45409;DHT22;31162;51.076;3.784;2022-11-30T06:40:43;7.50;99.90
45409;DHT22;31162;51.076;3.784;2022-11-30T06:43:09;7.50;99.90
45409;DHT22;31162;51.076;3.784;2022-11-30T06:45:35;7.50;99.90
45409;DHT22;31162;51.076;3.784;2022-11-30T06:48:00;7.40;99.90
45409;DHT22;31162;51.076;3.784;2022-11-30T06:50:26;7.40;99.90
45409;DHT22;31162;51.076;3.784;2022-11-30T06:52:52;7.40;99.90
45409;DHT22;31162;51.076;3.784;2022-11-30T06:55:17;7.40;99.90
45409;DHT22;31162;51.076;3.784;2022-11-30T06:57:43;7.50;99.90
45409;DHT22;31162;51.076;3.784;2022-11-30T07:00:10;7.40;99.90
45409;DHT22;31162;51.076;3.784;2022-11-30T07:02:37;7.50;99.90
45409;DHT22;31162;51.076;3.784;2022-11-30T07:05:03;7.50;99.90
45409;DHT22;31162;51.076;3.784;2022-11-30T07:07:29;7.50;99.90
45409;DHT22;31162;51.076;3.784;2022-11-30T07:09:55;7.50;99.90
45409;DHT22;31162;51.076;3.784;2022-11-30T07:12:21;7.60;99.90
45409;DHT22;31162;51.076;3.784;2022-11-30T07:14:46;7.40;99.90
45409;DHT22;31162;51.076;3.784;2022-11-30T07:17:12;7.40;99.90
45409;DHT22;31162;51.076;3.784;2022-11-30T07:19:37;7.40;99.90
45409;DHT22;31162;51.076;3.784;2022-11-30T07:22:03;7.30;99.90
45409;DHT22;31162;51.076;3.784;2022-11-30T07:24:29;7.20;99.90
45409;DHT22;31162;51.076;3.784;2022-11-30T07:27:13;7.00;99.90
45409;DHT22;31162;51.076;3.784;2022-11-30T07:29:38;7.00;99.90
45409;DHT22;31162;51.076;3.784;2022-11-30T07:32:05;7.00;99.90
45409;DHT22;31162;51.076;3.784;2022-11-30T07:34:30;7.10;99.90
45409;DHT22;31162;51.076;3.784;2022-11-30T07:36:56;7.20;99.90
45409;DHT22;31162;51.076;3.784;2022-11-30T07:39:22;6.80;99.90
45409;DHT22;31162;51.076;3.784;2022-11-30T07:41:48;6.90;99.90
45409;DHT22;31162;51.076;3.784;2022-11-30T07:44:14;7.10;99.90
45409;DHT22;31162;51.076;3.784;2022-11-30T07:46:39;7.10;99.90
45409;DHT22;31162;51.076;3.784;2022-11-30T07:49:07;7.10;99.90
45409;DHT22;31162;51.076;3.784;2022-11-30T07:51:33;7.30;99.90
45409;DHT22;31162;51.076;3.784;2022-11-30T07:53:58;7.20;99.90
45409;DHT22;31162;51.076;3.784;2022-11-30T07:56:25;7.30;99.90
45409;DHT22;31162;51.076;3.784;2022-11-30T07:58:56;7.30;99.90
45409;DHT22;31162;51.076;3.784;2022-11-30T08:01:23;7.30;99.90
45409;DHT22;31162;51.076;3.784;2022-11-30T08:03:50;7.40;99.90
45409;DHT22;31162;51.076;3.784;2022-11-30T08:06:18;7.50;99.90
45409;DHT22;31162;51.076;3.784;2022-11-30T08:08:46;7.50;99.90
45409;DHT22;31162;51.076;3.784;2022-11-30T08:11:15;7.60;99.90
45409;DHT22;31162;51.076;3.784;2022-11-30T08:13:42;7.60;99.90
45409;DHT22;31162;51.076;3.784;2022-11-30T08:16:11;7.60;99.90
45409;DHT22;31162;51.076;3.784;2022-11-30T08:18:38;7.70;99.90
45409;DHT22;31162;51.076;3.784;2022-11-30T08:21:05;7.90;99.90
45409;DHT22;31162;51.076;3.784;2022-11-30T08:23:34;7.90;99.90
45409;DHT22;31162;51.076;3.784;2022-11-30T08:26:05;8.10;99.90
45409;DHT22;31162;51.076;3.784;2022-11-30T08:28:32;8.00;99.90
45409;DHT22;31162;51.076;3.784;2022-11-30T08:31:05;8.00;99.90
45409;DHT22;31162;51.076;3.784;2022-11-30T08:33:34;7.70;99.90
45409;DHT22;31162;51.076;3.784;2022-11-30T08:36:12;7.70;99.90
45409;DHT22;31162;51.076;3.784;2022-11-30T08:38:39;7.70;99.90
45409;DHT22;31162;51.076;3.784;2022-11-30T08:41:07;7.80;99.90
45409;DHT22;31162;51.076;3.784;2022-11-30T08:43:33;8.00;99.90
45409;DHT22;31162;51.076;3.784;2022-11-30T08:46:02;8.10;99.90
45409;DHT22;31162;51.076;3.784;2022-11-30T08:48:28;8.20;99.90
45409;DHT22;31162;51.076;3.784;2022-11-30T08:50:53;8.20;99.90
45409;DHT22;31162;51.076;3.784;2022-11-30T08:53:19;8.40;99.90
45409;DHT22;31162;51.076;3.784;2022-11-30T08:55:57;8.60;99.90
45409;DHT22;31162;51.076;3.784;2022-11-30T08:58:23;8.70;99.90
45409;DHT22;31162;51.076;3.784;2022-11-30T09:00:49;8.80;99.90
45409;DHT22;31162;51.076;3.784;2022-11-30T09:03:14;8.90;99.90
45409;DHT22;31162;51.076;3.784;2022-11-30T09:05:40;8.80;99.90
45409;DHT22;31162;51.076;3.784;2022-11-30T09:08:06;8.80;99.90
45409;DHT22;31162;51.076;3.784;2022-11-30T09:10:32;8.70;99.90
45409;DHT22;31162;51.076;3.784;2022-11-30T09:12:58;8.60;99.90
45409;DHT22;31162;51.076;3.784;2022-11-30T09:15:24;8.80;99.90
45409;DHT22;31162;51.076;3.784;2022-11-30T09:17:49;8.90;99.90
45409;DHT22;31162;51.076;3.784;2022-11-30T09:20:15;9.00;99.90
45409;DHT22;31162;51.076;3.784;2022-11-30T09:22:41;8.90;99.90
45409;DHT22;31162;51.076;3.784;2022-11-30T09:25:08;8.90;99.90
45409;DHT22;31162;51.076;3.784;2022-11-30T09:27:34;8.80;99.90
45409;DHT22;31162;51.076;3.784;2022-11-30T09:30:00;8.80;99.90
45409;DHT22;31162;51.076;3.784;2022-11-30T09:32:27;8.80;99.90
45409;DHT22;31162;51.076;3.784;2022-11-30T09:34:53;8.70;99.90
45409;DHT22;31162;51.076;3.784;2022-11-30T09:37:18;8.80;99.90
45409;DHT22;31162;51.076;3.784;2022-11-30T09:39:44;8.80;99.90
45409;DHT22;31162;51.076;3.784;2022-11-30T09:42:27;8.60;99.90
45409;DHT22;31162;51.076;3.784;2022-11-30T09:45:05;8.80;99.90
45409;DHT22;31162;51.076;3.784;2022-11-30T09:52:38;8.50;99.90
45409;DHT22;31162;51.076;3.784;2022-11-30T09:55:07;8.10;99.90
45409;DHT22;31162;51.076;3.784;2022-11-30T09:57:47;7.80;99.90
45409;DHT22;31162;51.076;3.784;2022-11-30T10:00:19;8.00;99.90
45409;DHT22;31162;51.076;3.784;2022-11-30T10:02:47;8.20;99.90
45409;DHT22;31162;51.076;3.784;2022-11-30T10:17:33;9.40;99.90
45409;DHT22;31162;51.076;3.784;2022-11-30T10:25:57;9.60;99.90
45409;DHT22;31162;51.076;3.784;2022-11-30T10:30:54;9.50;99.90
45409;DHT22;31162;51.076;3.784;2022-11-30T10:33:26;9.30;99.90
45409;DHT22;31162;51.076;3.784;2022-11-30T10:35:54;9.20;99.90
45409;DHT22;31162;51.076;3.784;2022-11-30T10:38:31;9.20;99.90
45409;DHT22;31162;51.076;3.784;2022-11-30T10:41:07;9.10;99.90
45409;DHT22;31162;51.076;3.784;2022-11-30T10:43:50;9.00;99.90
45409;DHT22;31162;51.076;3.784;2022-11-30T10:46:31;9.00;99.90
45409;DHT22;31162;51.076;3.784;2022-11-30T10:49:12;9.20;99.90
45409;DHT22;31162;51.076;3.784;2022-11-30T10:51:42;9.20;99.90
45409;DHT22;31162;51.076;3.784;2022-11-30T10:54:16;9.20;99.90
45409;DHT22;31162;51.076;3.784;2022-11-30T10:56:43;9.20;99.90
45409;DHT22;31162;51.076;3.784;2022-11-30T10:59:51;9.10;99.90
45409;DHT22;31162;51.076;3.784;2022-11-30T11:02:44;9.30;99.90
45409;DHT22;31162;51.076;3.784;2022-11-30T11:05:26;9.30;99.90
45409;DHT22;31162;51.076;3.784;2022-11-30T11:07:55;9.30;99.90
45409;DHT22;31162;51.076;3.784;2022-11-30T11:12:52;10.10;99.90
45409;DHT22;31162;51.076;3.784;2022-11-30T11:17:49;10.70;99.90
45409;DHT22;31162;51.076;3.784;2022-11-30T11:20:34;11.00;99.90
45409;DHT22;31162;51.076;3.784;2022-11-30T11:23:02;11.30;99.90
45409;DHT22;31162;51.076;3.784;2022-11-30T11:25:34;11.60;99.90
45409;DHT22;31162;51.076;3.784;2022-11-30T11:28:06;11.50;99.90
45409;DHT22;31162;51.076;3.784;2022-11-30T11:30:36;11.50;99.90
45409;DHT22;31162;51.076;3.784;2022-11-30T11:36:11;11.50;99.90
45409;DHT22;31162;51.076;3.784;2022-11-30T11:38:29;11.60;99.90
45409;DHT22;31162;51.076;3.784;2022-11-30T11:41:04;11.80;99.90
45409;DHT22;31162;51.076;3.784;2022-11-30T11:43:33;11.80;99.90
45409;DHT22;31162;51.076;3.784;2022-11-30T11:46:12;11.80;99.90
45409;DHT22;31162;51.076;3.784;2022-11-30T11:51:30;11.10;99.90
45409;DHT22;31162;51.076;3.784;2022-11-30T11:53:59;10.40;99.90
45409;DHT22;31162;51.076;3.784;2022-11-30T11:56:32;10.10;99.90
45409;DHT22;31162;51.076;3.784;2022-11-30T11:59:28;10.30;99.90
45409;DHT22;31162;51.076;3.784;2022-11-30T12:04:54;10.60;99.90
45409;DHT22;31162;51.076;3.784;2022-11-30T12:07:31;10.70;99.90
45409;DHT22;31162;51.076;3.784;2022-11-30T12:12:52;10.80;99.90
45409;DHT22;31162;51.076;3.784;2022-11-30T12:15:18;11.00;99.90
45409;DHT22;31162;51.076;3.784;2022-11-30T12:21:05;11.10;99.90
45409;DHT22;31162;51.076;3.784;2022-11-30T12:26:26;11.00;99.90
45409;DHT22;31162;51.076;3.784;2022-11-30T12:40:32;11.40;99.90
45409;DHT22;31162;51.076;3.784;2022-11-30T12:43:16;11.40;99.90
45409;DHT22;31162;51.076;3.784;2022-11-30T12:45:46;11.30;99.90
45409;DHT22;31162;51.076;3.784;2022-11-30T12:51:15;11.20;99.90
45409;DHT22;31162;51.076;3.784;2022-11-30T12:54:03;10.90;99.90
45409;DHT22;31162;51.076;3.784;2022-11-30T12:56:50;11.00;99.90
45409;DHT22;31162;51.076;3.784;2022-11-30T13:01:56;10.60;99.90
45409;DHT22;31162;51.076;3.784;2022-11-30T13:04:35;10.50;99.90
45409;DHT22;31162;51.076;3.784;2022-11-30T13:07:09;10.80;99.90
45409;DHT22;31162;51.076;3.784;2022-11-30T13:09:45;10.80;99.90
45409;DHT22;31162;51.076;3.784;2022-11-30T13:12:45;10.70;99.90
45409;DHT22;31162;51.076;3.784;2022-11-30T13:15:16;10.60;99.90
45409;DHT22;31162;51.076;3.784;2022-11-30T13:17:43;10.50;99.90
45409;DHT22;31162;51.076;3.784;2022-11-30T13:20:24;10.50;99.90
45409;DHT22;31162;51.076;3.784;2022-11-30T13:23:09;10.30;99.90
45409;DHT22;31162;51.076;3.784;2022-11-30T13:25:45;10.30;99.90
45409;DHT22;31162;51.076;3.784;2022-11-30T13:31:03;10.20;99.90
45409;DHT22;31162;51.076;3.784;2022-11-30T13:35:58;10.40;99.90
45409;DHT22;31162;51.076;3.784;2022-11-30T13:38:24;10.50;99.90
45409;DHT22;31162;51.076;3.784;2022-11-30T13:41:02;10.50;99.90
45409;DHT22;31162;51.076;3.784;2022-11-30T13:43:46;10.50;99.90
45409;DHT22;31162;51.076;3.784;2022-11-30T13:46:18;10.70;99.90
45409;DHT22;31162;51.076;3.784;2022-11-30T13:48:45;11.00;99.90
45409;DHT22;31162;51.076;3.784;2022-11-30T13:51:12;11.00;99.90
45409;DHT22;31162;51.076;3.784;2022-11-30T13:53:38;10.90;99.90
45409;DHT22;31162;51.076;3.784;2022-11-30T13:56:31;10.90;99.90
45409;DHT22;31162;51.076;3.784;2022-11-30T14:01:52;10.80;99.90
45409;DHT22;31162;51.076;3.784;2022-11-30T14:06:51;10.90;99.90
45409;DHT22;31162;51.076;3.784;2022-11-30T14:14:58;10.90;99.90
45409;DHT22;31162;51.076;3.784;2022-11-30T14:17:29;10.80;99.90
45409;DHT22;31162;51.076;3.784;2022-11-30T14:20:15;10.60;99.90
45409;DHT22;31162;51.076;3.784;2022-11-30T14:22:43;10.50;99.90
45409;DHT22;31162;51.076;3.784;2022-11-30T14:25:14;10.50;99.90
45409;DHT22;31162;51.076;3.784;2022-11-30T14:27:41;10.40;99.90
45409;DHT22;31162;51.076;3.784;2022-11-30T14:30:19;10.50;99.90
45409;DHT22;31162;51.076;3.784;2022-11-30T14:32:54;10.50;99.90
45409;DHT22;31162;51.076;3.784;2022-11-30T14:35:21;10.40;99.90
45409;DHT22;31162;51.076;3.784;2022-11-30T14:37:53;10.40;99.90
45409;DHT22;31162;51.076;3.784;2022-11-30T14:40:19;10.40;99.90
45409;DHT22;31162;51.076;3.784;2022-11-30T14:42:59;10.30;99.90
45409;DHT22;31162;51.076;3.784;2022-11-30T14:45:28;10.20;99.90
45409;DHT22;31162;51.076;3.784;2022-11-30T14:48:14;10.10;99.90
45409;DHT22;31162;51.076;3.784;2022-11-30T14:50:55;10.10;99.90
45409;DHT22;31162;51.076;3.784;2022-11-30T14:53:30;10.10;99.90
45409;DHT22;31162;51.076;3.784;2022-11-30T14:56:25;10.10;99.90
45409;DHT22;31162;51.076;3.784;2022-11-30T15:01:31;10.10;99.90
45409;DHT22;31162;51.076;3.784;2022-11-30T15:04:17;10.20;99.90
45409;DHT22;31162;51.076;3.784;2022-11-30T15:06:43;10.00;99.90
45409;DHT22;31162;51.076;3.784;2022-11-30T15:09:18;9.90;99.90
45409;DHT22;31162;51.076;3.784;2022-11-30T15:11:46;9.60;99.90
45409;DHT22;31162;51.076;3.784;2022-11-30T15:14:13;9.70;99.90
45409;DHT22;31162;51.076;3.784;2022-11-30T15:16:46;9.70;99.90
45409;DHT22;31162;51.076;3.784;2022-11-30T15:19:27;9.70;99.90
45409;DHT22;31162;51.076;3.784;2022-11-30T15:21:54;9.70;99.90
45409;DHT22;31162;51.076;3.784;2022-11-30T15:24:21;9.70;99.90
45409;DHT22;31162;51.076;3.784;2022-11-30T15:27:08;9.70;99.90
45409;DHT22;31162;51.076;3.784;2022-11-30T15:29:38;9.50;99.90
45409;DHT22;31162;51.076;3.784;2022-11-30T15:32:14;9.50;99.90
45409;DHT22;31162;51.076;3.784;2022-11-30T15:34:46;9.40;99.90
45409;DHT22;31162;51.076;3.784;2022-11-30T15:37:13;9.40;99.90
45409;DHT22;31162;51.076;3.784;2022-11-30T15:39:39;9.30;99.90
45409;DHT22;31162;51.076;3.784;2022-11-30T15:42:18;9.40;99.90
45409;DHT22;31162;51.076;3.784;2022-11-30T15:44:44;9.30;99.90
45409;DHT22;31162;51.076;3.784;2022-11-30T15:47:35;9.30;99.90
45409;DHT22;31162;51.076;3.784;2022-11-30T15:50:29;9.30;99.90
45409;DHT22;31162;51.076;3.784;2022-11-30T15:52:48;9.20;99.90
45409;DHT22;31162;51.076;3.784;2022-11-30T15:55:46;9.10;99.90
45409;DHT22;31162;51.076;3.784;2022-11-30T15:58:40;9.00;99.90
45409;DHT22;31162;51.076;3.784;2022-11-30T16:01:15;9.00;99.90
45409;DHT22;31162;51.076;3.784;2022-11-30T16:06:59;9.00;99.90
45409;DHT22;31162;51.076;3.784;2022-11-30T16:09:27;9.10;99.90
45409;DHT22;31162;51.076;3.784;2022-11-30T16:11:59;9.00;99.90
45409;DHT22;31162;51.076;3.784;2022-11-30T16:14:26;8.90;99.90
45409;DHT22;31162;51.076;3.784;2022-11-30T16:16:52;8.80;99.90
45409;DHT22;31162;51.076;3.784;2022-11-30T16:19:20;8.80;99.90
45409;DHT22;31162;51.076;3.784;2022-11-30T16:21:48;8.80;99.90
45409;DHT22;31162;51.076;3.784;2022-11-30T16:24:14;9.00;99.90
45409;DHT22;31162;51.076;3.784;2022-11-30T16:26:40;9.00;99.90
45409;DHT22;31162;51.076;3.784;2022-11-30T16:29:06;8.90;99.90
45409;DHT22;31162;51.076;3.784;2022-11-30T16:31:32;8.90;99.90
45409;DHT22;31162;51.076;3.784;2022-11-30T16:33:58;8.80;99.90
45409;DHT22;31162;51.076;3.784;2022-11-30T16:36:24;8.90;99.90
45409;DHT22;31162;51.076;3.784;2022-11-30T16:38:50;8.90;99.90
45409;DHT22;31162;51.076;3.784;2022-11-30T16:41:25;8.80;99.90
45409;DHT22;31162;51.076;3.784;2022-11-30T16:43:53;8.70;99.90
45409;DHT22;31162;51.076;3.784;2022-11-30T16:46:24;8.70;99.90
45409;DHT22;31162;51.076;3.784;2022-11-30T16:48:50;8.70;99.90
45409;DHT22;31162;51.076;3.784;2022-11-30T16:51:27;8.70;99.90
45409;DHT22;31162;51.076;3.784;2022-11-30T16:53:53;8.70;99.90
45409;DHT22;31162;51.076;3.784;2022-11-30T16:56:19;8.80;99.90
45409;DHT22;31162;51.076;3.784;2022-11-30T16:58:45;8.80;99.90
45409;DHT22;31162;51.076;3.784;2022-11-30T17:01:20;8.80;99.90
45409;DHT22;31162;51.076;3.784;2022-11-30T17:03:49;8.90;99.90
45409;DHT22;31162;51.076;3.784;2022-11-30T17:06:20;8.80;99.90
45409;DHT22;31162;51.076;3.784;2022-11-30T17:08:46;8.90;99.90
45409;DHT22;31162;51.076;3.784;2022-11-30T17:11:19;8.90;99.90
45409;DHT22;31162;51.076;3.784;2022-11-30T17:13:46;9.00;99.90
45409;DHT22;31162;51.076;3.784;2022-11-30T17:16:12;8.90;99.90
45409;DHT22;31162;51.076;3.784;2022-11-30T17:18:38;8.90;99.90
45409;DHT22;31162;51.076;3.784;2022-11-30T17:21:03;8.90;99.90
45409;DHT22;31162;51.076;3.784;2022-11-30T17:23:29;8.80;99.90
45409;DHT22;31162;51.076;3.784;2022-11-30T17:25:54;8.80;99.90
45409;DHT22;31162;51.076;3.784;2022-11-30T17:28:20;8.80;99.90
45409;DHT22;31162;51.076;3.784;2022-11-30T17:30:46;8.80;99.90
45409;DHT22;31162;51.076;3.784;2022-11-30T17:33:12;8.70;99.90
45409;DHT22;31162;51.076;3.784;2022-11-30T17:35:37;8.80;99.90
45409;DHT22;31162;51.076;3.784;2022-11-30T17:38:04;8.70;99.90
45409;DHT22;31162;51.076;3.784;2022-11-30T17:40:30;8.80;99.90